createdAt,value
2018-10-12T04:32:45.583Z,7.20
2018-10-12T04:35:13.578Z,7.10
2018-10-12T04:37:41.816Z,7.50
2018-10-12T04:40:15.659Z,7.90
2018-10-12T04:42:44.152Z,6.50
2018-10-12T04:45:12.634Z,7.63
2018-10-12T04:47:40.649Z,7.27
2018-10-12T04:50:08.984Z,8.10
2018-10-12T04:52:37.205Z,7.90
2018-10-12T04:55:05.918Z,7.47
2018-10-12T04:57:34.947Z,7.40
2018-10-12T05:00:03.489Z,7.23
2018-10-12T05:02:32.851Z,7.40
2018-10-12T05:05:01.520Z,6.97
2018-10-12T05:07:29.803Z,6.70
2018-10-12T05:09:58.333Z,5.77
2018-10-12T05:12:27.733Z,5.70
2018-10-12T05:14:56.725Z,5.80
2018-10-12T05:17:25.758Z,5.63
2018-10-12T05:19:54.324Z,5.17
2018-10-12T05:22:22.827Z,5.80
2018-10-12T05:24:51.384Z,5.73
2018-10-12T05:30:05.912Z,5.07
2018-10-12T05:32:34.843Z,5.10
2018-10-12T05:35:03.450Z,5.13
2018-10-12T05:37:31.916Z,4.50
2018-10-12T05:40:00.439Z,4.10
2018-10-12T05:42:29.451Z,4.63
2018-10-12T05:44:57.945Z,5.10
2018-10-12T05:47:26.592Z,4.77
2018-10-12T05:49:58.358Z,5.23
2018-10-12T05:52:27.073Z,6.00
2018-10-12T05:54:55.705Z,5.93
2018-10-12T05:57:23.926Z,5.80
2018-10-12T05:59:52.650Z,5.60
2018-10-12T06:02:24.695Z,6.60
2018-10-12T06:04:53.050Z,6.47
2018-10-12T06:07:21.158Z,6.33
2018-10-12T06:09:49.601Z,5.20
2018-10-12T06:12:23.559Z,6.20
2018-10-12T06:14:51.778Z,5.87
2018-10-12T06:17:20.394Z,5.37
2018-10-12T06:19:49.202Z,5.63
2018-10-12T06:22:17.227Z,5.73
2018-10-12T06:24:45.324Z,5.23
2018-10-12T06:27:13.349Z,5.57
2018-10-12T06:29:41.377Z,6.40
2018-10-12T06:32:09.416Z,6.20
2018-10-12T06:34:37.455Z,6.03
2018-10-12T06:37:05.437Z,5.60
2018-10-12T06:39:34.005Z,6.27
2018-10-12T06:42:02.020Z,6.30
2018-10-12T06:44:30.008Z,6.20
2018-10-12T06:46:57.992Z,6.93
2018-10-12T06:49:25.964Z,7.67
2018-10-12T06:51:54.039Z,7.33
2018-10-12T06:54:22.415Z,6.90
2018-10-12T06:56:50.467Z,7.20
2018-10-12T06:59:18.488Z,7.03
2018-10-12T07:01:46.725Z,6.63
2018-10-12T07:04:14.975Z,6.70
2018-10-12T07:06:42.996Z,6.63
2018-10-12T07:09:12.189Z,6.83
2018-10-12T07:11:40.604Z,6.53
2018-10-12T07:14:08.626Z,6.80
2018-10-12T07:16:36.654Z,6.90
2018-10-12T07:19:04.673Z,5.90
2018-10-12T07:21:32.657Z,5.67
2018-10-12T07:24:00.669Z,6.10
2018-10-12T07:26:28.765Z,6.73
2018-10-12T07:28:56.840Z,6.77
2018-10-12T07:31:25.093Z,6.13
2018-10-12T07:33:53.111Z,6.30
2018-10-12T07:36:21.529Z,5.83
2018-10-12T07:38:49.721Z,6.30
2018-10-12T07:41:17.956Z,6.37
2018-10-12T07:43:45.965Z,6.30
2018-10-12T07:46:14.019Z,6.47
2018-10-12T07:48:42.334Z,5.83
2018-10-12T07:51:10.599Z,4.97
2018-10-12T07:53:38.604Z,6.30
2018-10-12T07:56:07.341Z,5.70
2018-10-12T07:58:35.441Z,6.00
2018-10-12T08:01:03.469Z,6.50
2018-10-12T08:03:31.518Z,5.97
2018-10-12T08:05:59.990Z,6.30
2018-10-12T08:08:27.949Z,5.70
2018-10-12T08:10:55.930Z,5.83
2018-10-12T08:13:24.233Z,5.30
2018-10-12T08:15:53.133Z,5.90
2018-10-12T08:18:22.181Z,5.93
2018-10-12T08:20:50.185Z,5.33
2018-10-12T08:23:18.746Z,6.40
2018-10-12T08:25:46.745Z,6.00
2018-10-12T08:28:14.811Z,6.63
2018-10-12T08:30:43.605Z,6.20
2018-10-12T08:33:11.840Z,5.43
2018-10-12T08:35:40.254Z,5.53
2018-10-12T08:38:08.624Z,5.40
2018-10-12T08:40:36.624Z,5.20
2018-10-12T08:43:05.030Z,6.10
2018-10-12T08:45:33.042Z,5.40
2018-10-12T08:48:01.554Z,4.90
2018-10-12T08:50:29.929Z,5.33
2018-10-12T08:52:58.545Z,4.13
2018-10-12T08:55:26.857Z,4.40
2018-10-12T08:57:55.064Z,3.80
2018-10-12T09:00:23.173Z,3.80
2018-10-12T09:02:51.791Z,3.60
2018-10-12T09:05:19.741Z,3.90
2018-10-12T09:07:48.101Z,3.40
2018-10-12T09:10:16.058Z,3.90
2018-10-12T09:12:44.061Z,3.50
2018-10-12T09:15:12.072Z,3.20
2018-10-12T09:17:40.097Z,3.00
2018-10-12T09:20:08.317Z,3.33
2018-10-12T09:22:36.509Z,3.67
2018-10-12T09:25:04.692Z,3.53
2018-10-12T09:27:32.913Z,2.87
2018-10-12T09:30:00.886Z,3.20
2018-10-12T09:32:28.871Z,3.40
2018-10-12T09:34:56.957Z,3.47
2018-10-12T09:37:26.134Z,2.97
2018-10-12T09:39:54.893Z,2.97
2018-10-12T09:42:23.250Z,3.20
2018-10-12T09:44:51.830Z,3.53
2018-10-12T09:47:19.865Z,3.07
2018-10-12T09:49:47.850Z,2.90
2018-10-12T09:52:15.808Z,3.17
2018-10-12T09:54:43.815Z,3.43
2018-10-12T09:57:17.105Z,3.00
2018-10-12T09:59:45.158Z,2.80
2018-10-12T10:02:18.844Z,3.03
2018-10-12T10:04:47.028Z,3.70
2018-10-12T10:07:15.015Z,3.50
2018-10-12T10:09:43.007Z,3.10
2018-10-12T10:12:10.986Z,3.70
2018-10-12T10:14:38.970Z,3.30
2018-10-12T10:17:07.241Z,3.37
2018-10-12T10:19:35.221Z,3.13
2018-10-12T10:22:03.226Z,3.40
2018-10-12T10:24:31.448Z,3.13
2018-10-12T10:26:59.665Z,3.10
2018-10-12T10:29:28.128Z,2.80
2018-10-12T10:31:56.210Z,2.93
2018-10-12T10:34:24.470Z,3.40
2018-10-12T10:36:52.545Z,2.63
2018-10-12T10:39:20.605Z,3.07
2018-10-12T10:41:50.006Z,2.90
2018-10-12T10:44:18.789Z,3.03
2018-10-12T10:46:47.728Z,3.37
2018-10-12T10:49:15.792Z,2.83
2018-10-12T10:51:46.272Z,3.10
2018-10-12T10:54:14.393Z,3.00
2018-10-12T10:56:43.142Z,2.97
2018-10-12T10:59:11.190Z,2.73
2018-10-12T11:01:40.301Z,3.13
2018-10-12T11:04:09.308Z,2.47
2018-10-12T11:06:37.640Z,2.43
2018-10-12T11:09:06.768Z,3.00
2018-10-12T11:11:34.838Z,2.50
2018-10-12T11:14:03.242Z,2.40
2018-10-12T11:16:32.828Z,2.70
2018-10-12T11:19:01.135Z,2.90
2018-10-12T11:21:29.479Z,2.47
2018-10-12T11:23:57.572Z,2.80
2018-10-12T11:26:25.902Z,2.57
2018-10-12T11:28:54.145Z,2.47
2018-10-12T11:31:22.410Z,2.70
2018-10-12T11:33:50.828Z,2.10
2018-10-12T11:36:19.714Z,2.40
2018-10-12T11:38:47.899Z,2.13
2018-10-12T11:41:15.964Z,2.50
2018-10-12T11:43:44.964Z,1.80
2018-10-12T11:46:12.968Z,2.40
2018-10-12T11:48:40.954Z,2.57
2018-10-12T11:51:08.913Z,2.10
2018-10-12T11:53:36.912Z,2.77
2018-10-12T11:56:05.693Z,2.70
2018-10-12T11:58:33.683Z,2.93
2018-10-12T12:01:01.722Z,2.77
2018-10-12T12:03:29.779Z,2.50
2018-10-12T12:05:57.895Z,3.10
2018-10-12T12:08:25.982Z,2.97
2018-10-12T12:10:54.257Z,2.60
2018-10-12T12:13:23.180Z,3.17
2018-10-12T12:15:51.236Z,2.20
2018-10-12T12:18:19.713Z,2.60
2018-10-12T12:20:49.841Z,2.50
2018-10-12T12:23:18.466Z,2.63
2018-10-12T12:25:46.880Z,2.50
2018-10-12T12:28:15.177Z,2.67
2018-10-12T12:30:43.403Z,3.00
2018-10-12T12:33:11.697Z,2.70
2018-10-12T12:35:40.082Z,2.30
2018-10-12T12:38:08.567Z,2.87
2018-10-12T12:40:36.865Z,2.23
2018-10-12T12:43:06.307Z,2.67
2018-10-12T12:45:34.347Z,2.77
2018-10-12T12:48:02.995Z,2.50
2018-10-12T12:50:30.842Z,2.70
2018-10-12T12:52:59.417Z,3.10
2018-10-12T12:55:27.651Z,2.50
2018-10-12T12:57:56.297Z,2.60
2018-10-12T13:00:24.577Z,2.73
2018-10-12T13:02:53.256Z,2.40
2018-10-12T13:05:21.547Z,2.33
2018-10-12T13:07:49.551Z,2.67
2018-10-12T13:10:17.614Z,2.00
2018-10-12T13:12:45.684Z,2.67
2018-10-12T13:15:14.258Z,2.30
2018-10-12T13:17:42.325Z,2.40
2018-10-12T13:20:10.349Z,2.47
2018-10-12T13:22:38.374Z,2.70
2018-10-12T13:25:06.963Z,3.17
2018-10-12T13:27:35.353Z,2.87
2018-10-12T13:30:03.402Z,2.20
2018-10-12T13:32:32.054Z,2.27
2018-10-12T13:35:00.048Z,2.10
2018-10-12T13:37:28.337Z,2.07
2018-10-12T13:39:56.430Z,1.60
2018-10-12T13:42:24.437Z,2.80
2018-10-12T13:44:52.660Z,2.20
2018-10-12T13:47:20.669Z,2.47
2018-10-12T13:49:48.719Z,2.40
2018-10-12T13:52:16.771Z,2.07
2018-10-12T13:54:44.871Z,2.33
2018-10-12T13:57:12.870Z,2.53
2018-10-12T13:59:41.141Z,2.40
2018-10-12T14:02:09.137Z,2.17
2018-10-12T14:04:37.133Z,2.57
2018-10-12T14:07:05.174Z,2.00
2018-10-12T14:09:33.180Z,2.17
2018-10-12T14:12:01.877Z,2.63
2018-10-12T14:14:29.869Z,2.10
2018-10-12T14:16:58.142Z,2.07
2018-10-12T14:19:26.539Z,2.20
2018-10-12T14:21:54.421Z,2.17
2018-10-12T14:24:22.661Z,2.20
2018-10-12T14:26:50.660Z,2.50
2018-10-12T14:29:18.887Z,2.77
2018-10-12T14:31:46.897Z,2.33
2018-10-12T14:34:14.954Z,2.90
2018-10-12T14:36:43.358Z,2.80
2018-10-12T14:39:11.358Z,2.47
2018-10-12T14:41:39.857Z,2.63
2018-10-12T14:44:08.089Z,2.47
2018-10-12T14:46:37.564Z,2.10
2018-10-12T14:49:05.656Z,2.40
2018-10-12T14:51:33.740Z,2.00
2018-10-12T14:54:01.794Z,2.80
2018-10-12T14:56:29.766Z,2.73
2018-10-12T14:58:58.710Z,2.40
2018-10-12T15:01:26.720Z,2.70
2018-10-12T15:03:54.918Z,2.30
2018-10-12T15:06:23.332Z,2.60
2018-10-12T15:08:51.659Z,2.43
2018-10-12T15:11:19.765Z,2.80
2018-10-12T15:13:47.839Z,2.60
2018-10-12T15:16:15.875Z,2.80
2018-10-12T15:18:44.348Z,2.67
2018-10-12T15:21:13.027Z,2.83
2018-10-12T15:23:41.181Z,2.70
2018-10-12T15:26:09.277Z,2.53
2018-10-12T15:28:37.437Z,2.00
2018-10-12T15:31:06.301Z,2.30
2018-10-12T15:33:34.370Z,2.90
2018-10-12T15:36:02.451Z,2.10
2018-10-12T15:38:30.504Z,2.53
2018-10-12T15:40:58.552Z,2.47
2018-10-12T15:43:26.564Z,2.80
2018-10-12T15:45:55.538Z,2.83
2018-10-12T15:48:23.571Z,2.80
2018-10-12T15:50:51.706Z,2.80
2018-10-12T15:53:19.752Z,3.00
2018-10-12T15:55:47.766Z,2.73
2018-10-12T15:58:15.916Z,2.40
2018-10-12T16:00:44.049Z,2.60
2018-10-12T16:03:12.780Z,2.90
2018-10-12T16:05:40.749Z,2.80
2018-10-12T16:08:08.989Z,2.97
2018-10-12T16:10:37.005Z,3.10
2018-10-12T16:13:05.239Z,2.93
2018-10-12T16:15:33.568Z,3.10
2018-10-12T16:18:01.717Z,2.70
2018-10-12T16:20:29.774Z,2.80
2018-10-12T16:22:57.812Z,3.23
2018-10-12T16:26:01.748Z,2.73
2018-10-12T16:28:29.814Z,2.77
2018-10-12T16:30:58.177Z,3.50
2018-10-12T16:33:26.210Z,3.57
2018-10-12T16:35:55.549Z,3.00
2018-10-12T16:38:23.984Z,2.60
2018-10-12T16:40:51.980Z,3.90
2018-10-12T16:43:20.029Z,2.60
2018-10-12T16:45:49.200Z,3.00
2018-10-12T16:48:17.230Z,3.30
2018-10-12T16:50:45.290Z,3.87
2018-10-12T16:53:13.652Z,3.53
2018-10-12T16:55:41.961Z,3.37
2018-10-12T16:58:11.102Z,3.43
2018-10-12T17:00:39.117Z,3.17
2018-10-12T17:03:07.179Z,3.80
2018-10-12T17:05:35.306Z,3.80
2018-10-12T17:08:03.352Z,3.73
2018-10-12T17:10:32.320Z,3.93
2018-10-12T17:13:00.701Z,4.27
2018-10-12T17:15:30.050Z,3.83
2018-10-12T17:17:58.925Z,4.30
2018-10-12T17:20:27.737Z,3.80
2018-10-12T17:22:56.034Z,4.00
2018-10-12T17:25:24.330Z,3.60
2018-10-12T17:27:52.986Z,3.70
2018-10-12T17:30:21.082Z,4.00
2018-10-12T17:32:49.317Z,4.37
2018-10-12T17:35:17.441Z,4.50
2018-10-12T17:37:45.692Z,4.43
2018-10-12T17:40:13.791Z,4.70
2018-10-12T17:42:42.926Z,4.33
2018-10-12T17:45:11.755Z,4.23
2018-10-12T17:47:42.502Z,4.00
2018-10-12T17:50:11.417Z,4.07
2018-10-12T17:52:43.340Z,4.30
2018-10-12T17:55:12.678Z,4.23
2018-10-12T17:57:41.248Z,3.90
2018-10-12T18:00:13.588Z,4.30
2018-10-12T18:02:42.315Z,4.07
2018-10-12T18:05:12.389Z,4.20
2018-10-12T18:07:40.637Z,4.20
2018-10-12T18:10:11.772Z,4.70
2018-10-12T18:12:40.821Z,3.97
2018-10-12T18:15:10.018Z,4.77
2018-10-12T18:17:39.108Z,4.90
2018-10-12T18:20:07.575Z,4.00
2018-10-12T18:22:35.924Z,5.03
2018-10-12T18:25:04.186Z,4.30
2018-10-12T18:27:32.817Z,4.70
2018-10-12T18:30:01.746Z,4.50
2018-10-12T18:32:30.776Z,4.80
2018-10-12T18:34:59.204Z,5.30
2018-10-12T18:37:27.356Z,5.70
2018-10-12T18:39:55.778Z,4.93
2018-10-12T18:42:24.004Z,4.87
2018-10-12T18:44:52.377Z,5.70
2018-10-12T18:47:20.549Z,5.20
2018-10-12T18:49:48.945Z,5.07
2018-10-12T18:52:17.655Z,6.43
2018-10-12T18:54:46.144Z,5.20
2018-10-12T18:57:14.293Z,5.80
2018-10-12T18:59:43.126Z,5.57
2018-10-12T19:02:13.241Z,6.17
2018-10-12T19:04:41.419Z,6.53
2018-10-12T19:07:09.439Z,6.37
2018-10-12T19:09:37.625Z,7.10
2018-10-12T19:12:05.645Z,6.70
2018-10-12T19:14:33.768Z,5.60
2018-10-12T19:17:01.895Z,5.53
2018-10-12T19:19:30.038Z,6.03
2018-10-12T19:21:58.634Z,6.80
2018-10-12T19:24:26.803Z,8.40
2018-10-12T19:26:55.280Z,6.90
2018-10-12T19:29:23.593Z,7.03
2018-10-12T19:31:51.820Z,6.67
2018-10-12T19:34:20.511Z,5.97
2018-10-12T19:36:48.645Z,6.63
2018-10-12T19:39:16.735Z,7.23
2018-10-12T19:41:44.831Z,7.37
2018-10-12T19:44:13.628Z,6.83
2018-10-12T19:46:42.289Z,6.97
2018-10-12T19:49:10.427Z,6.63
2018-10-12T19:51:38.950Z,6.20
2018-10-12T19:54:07.378Z,7.10
2018-10-12T19:56:35.389Z,6.30
2018-10-12T19:59:03.622Z,6.63
2018-10-12T20:01:32.107Z,6.60
2018-10-12T20:04:00.714Z,7.77
2018-10-12T20:06:29.257Z,6.60
2018-10-12T20:08:57.675Z,7.90
2018-10-12T20:11:33.835Z,8.20
2018-10-12T20:14:02.845Z,8.77
2018-10-12T20:16:31.929Z,7.80
2018-10-12T20:19:00.853Z,6.93
2018-10-12T20:21:29.603Z,6.90
2018-10-12T20:23:58.294Z,8.50
2018-10-12T20:26:26.900Z,8.43
2018-10-12T20:28:55.419Z,7.40
2018-10-12T20:31:24.303Z,7.23
2018-10-12T20:33:52.637Z,7.60
2018-10-12T20:36:20.802Z,8.27
2018-10-12T20:38:49.193Z,7.10
2018-10-12T20:41:17.731Z,7.00
2018-10-12T20:43:46.261Z,8.17
2018-10-12T20:46:14.429Z,7.47
2018-10-12T20:48:42.964Z,7.87
2018-10-12T20:51:10.931Z,8.30
2018-10-12T20:53:39.064Z,8.07
2018-10-12T20:56:07.670Z,9.23
2018-10-12T20:58:35.992Z,9.40
2018-10-12T21:01:08.095Z,8.73
2018-10-12T21:03:36.888Z,8.70
2018-10-12T21:06:05.482Z,8.70
2018-10-12T21:08:33.962Z,8.10
2018-10-12T21:11:02.688Z,8.40
2018-10-12T21:13:31.470Z,8.70
2018-10-12T21:15:59.798Z,8.47
2018-10-12T21:18:28.307Z,8.70
2018-10-12T21:20:57.215Z,9.37
2018-10-12T21:23:25.545Z,8.20
2018-10-12T21:25:53.585Z,8.20
2018-10-12T21:28:22.411Z,9.33
2018-10-12T21:30:50.577Z,9.07
2018-10-12T21:33:18.736Z,10.10
2018-10-12T21:35:47.034Z,9.30
2018-10-12T21:38:15.544Z,10.00
2018-10-12T21:40:43.585Z,10.50
2018-10-12T21:43:12.101Z,9.77
2018-10-12T21:45:40.455Z,9.50
2018-10-12T21:48:09.144Z,9.43
2018-10-12T21:50:37.692Z,9.23
2018-10-12T21:53:06.092Z,10.80
2018-10-12T21:55:34.639Z,11.10
2018-10-12T21:58:03.306Z,11.60
2018-10-12T22:00:31.662Z,10.00
